Time;durP1;ratioP1;P1;durP2;ratioP2;P2;SDS_P1;SDS_P2;PMS_P1;PMS_P2;Temp;Humidity;BMP_temperature;BMP_pressure;BME280_temperature;BME280_humidity;BME280_pressure;Samples;Min_cycle;Max_cycle;Signal;HPM_P1;HPM_P2
2023/01/30 15:43:59;;;;;;;16.45;3.35;;;7.80;99.60;;;;;;5084850;28;20328;-65
2023/01/30 15:46:49;;;;;;;11.75;3.15;;;7.80;99.90;;;;;;5087181;28;20028;-67
2023/01/30 15:49:34;;;;;;;16.92;3.25;;;7.80;99.90;;;;;;5059996;28;20044;-66
2023/01/30 15:52:04;;;;;;;11.45;3.08;;;7.90;99.90;;;;;;5078730;28;20089;-66
2023/01/30 15:54:30;;;;;;;16.23;3.92;;;7.90;99.90;;;;;;5086636;28;20020;-64
2023/01/30 15:56:58;;;;;;;17.50;3.08;;;8.00;99.90;;;;;;5067728;28;20056;-65
2023/01/30 15:59:38;;;;;;;11.70;3.42;;;8.00;99.90;;;;;;5050171;28;20416;-66
2023/01/30 16:02:19;;;;;;;16.90;3.17;;;7.90;99.90;;;;;;5063204;28;20032;-65
2023/01/30 16:04:45;;;;;;;16.73;3.17;;;8.00;99.90;;;;;;5050222;28;20739;-67
2023/01/30 16:07:16;;;;;;;12.07;2.80;;;8.00;99.90;;;;;;5072209;28;20115;-64
2023/01/30 16:09:42;;;;;;;9.23;2.90;;;8.00;99.90;;;;;;5066596;28;20028;-67
2023/01/30 16:12:23;;;;;;;18.17;2.72;;;8.00;99.90;;;;;;5067825;28;20354;-66
2023/01/30 16:14:49;;;;;;;13.13;2.72;;;8.00;99.90;;;;;;5068038;28;20456;-66
2023/01/30 16:17:15;;;;;;;10.88;2.70;;;8.00;99.90;;;;;;5067566;28;20032;-67
2023/01/30 16:19:41;;;;;;;15.07;3.42;;;7.90;99.90;;;;;;5049643;28;20025;-66
2023/01/30 16:22:19;;;;;;;19.15;3.05;;;7.90;99.90;;;;;;5067582;28;20031;-65
2023/01/30 16:24:48;;;;;;;10.90;2.58;;;7.80;99.90;;;;;;5066980;28;20036;-66
2023/01/30 16:27:33;;;;;;;16.48;3.85;;;7.80;99.90;;;;;;5087835;28;20032;-65
2023/01/30 16:30:06;;;;;;;18.25;3.30;;;7.70;99.90;;;;;;5087813;28;20111;-65
2023/01/30 16:32:32;;;;;;;16.65;3.15;;;7.50;99.90;;;;;;5087142;28;20020;-65
2023/01/30 16:35:16;;;;;;;10.68;3.03;;;7.50;99.90;;;;;;5088090;28;20048;-65
2023/01/30 16:37:43;;;;;;;18.98;3.25;;;7.50;99.90;;;;;;5086888;28;20042;-66
2023/01/30 16:40:18;;;;;;;13.43;3.67;;;7.50;99.90;;;;;;5087522;28;20403;-65
2023/01/30 16:43:14;;;;;;;11.93;3.33;;;7.50;99.90;;;;;;5087099;28;20048;-65
2023/01/30 16:45:52;;;;;;;12.05;2.03;;;7.40;99.90;;;;;;5046915;28;20022;-64
2023/01/30 16:48:23;;;;;;;13.10;3.47;;;7.40;99.90;;;;;;5047693;28;20029;-64
2023/01/30 16:51:09;;;;;;;;;;;7.30;99.90;;;;;;5047273;28;20120;-65
2023/01/30 16:53:35;;;;;;;18.83;3.15;;;7.30;99.90;;;;;;5029562;28;19905;-65
2023/01/30 16:56:13;;;;;;;13.07;2.90;;;7.20;99.90;;;;;;5016479;28;20036;-64
2023/01/30 16:58:39;;;;;;;14.07;2.75;;;7.10;99.90;;;;;;5014915;28;20033;-65
2023/01/30 17:01:07;;;;;;;18.08;3.05;;;7.10;99.90;;;;;;5052065;28;20031;-65
2023/01/30 17:03:48;;;;;;;14.50;2.92;;;7.10;99.90;;;;;;5073213;28;20037;-64
2023/01/30 17:06:37;;;;;;;16.17;2.95;;;7.10;99.90;;;;;;5053709;28;20013;-64
2023/01/30 17:09:04;;;;;;;12.13;2.35;;;7.00;99.90;;;;;;5052804;28;20017;-64
2023/01/30 17:11:34;;;;;;;13.32;2.80;;;6.90;99.90;;;;;;5060638;28;20115;-65
2023/01/30 17:14:19;;;;;;;15.45;2.40;;;6.90;99.90;;;;;;5072367;28;20032;-65
2023/01/30 17:17:05;;;;;;;12.27;2.50;;;6.90;99.90;;;;;;5073337;28;20025;-62
2023/01/30 17:19:31;;;;;;;10.10;2.60;;;6.90;99.90;;;;;;5034883;28;20516;-66
2023/01/30 17:21:58;;;;;;;16.42;3.30;;;6.80;99.90;;;;;;5052863;28;20056;-67
2023/01/30 17:24:25;;;;;;;21.38;3.53;;;6.70;99.90;;;;;;5035008;28;20055;-65
2023/01/30 17:26:57;;;;;;;15.30;2.58;;;6.70;99.90;;;;;;5054921;28;20112;-62
2023/01/30 17:29:24;;;;;;;11.57;2.70;;;6.70;99.90;;;;;;5052735;28;20056;-64
2023/01/30 17:31:51;;;;;;;15.85;3.00;;;6.70;99.90;;;;;;5052895;28;20112;-65
2023/01/30 17:34:18;;;;;;;13.07;2.60;;;6.70;99.90;;;;;;5052198;28;20025;-65
2023/01/30 17:36:45;;;;;;;15.10;2.67;;;6.70;99.90;;;;;;5052944;28;20016;-66
2023/01/30 17:39:16;;;;;;;12.68;3.22;;;6.60;99.90;;;;;;5052733;28;20120;-66
2023/01/30 17:41:43;;;;;;;13.23;2.55;;;6.50;99.90;;;;;;5033764;28;20103;-65
2023/01/30 17:44:09;;;;;;;10.60;2.60;;;6.50;99.90;;;;;;5045270;28;20024;-62
2023/01/30 17:46:46;;;;;;;14.93;2.55;;;6.50;99.90;;;;;;5072560;28;20420;-66
2023/01/30 17:49:16;;;;;;;14.77;2.47;;;6.40;99.90;;;;;;5071780;28;20488;-64
2023/01/30 17:51:42;;;;;;;15.43;2.95;;;6.50;99.90;;;;;;5054018;28;20089;-64
2023/01/30 17:54:09;;;;;;;13.15;2.53;;;6.40;99.90;;;;;;5065725;28;20029;-65
2023/01/30 17:56:37;;;;;;;9.20;2.60;;;6.40;99.90;;;;;;5042323;28;20029;-64
2023/01/30 17:59:13;;;;;;;18.73;3.13;;;6.40;99.90;;;;;;5052156;28;20028;-65
2023/01/30 18:01:44;;;;;;;14.50;3.30;;;6.30;99.90;;;;;;5014073;28;20074;-64
2023/01/30 18:04:10;;;;;;;12.10;2.80;;;6.30;99.90;;;;;;5014468;28;20125;-64
2023/01/30 18:06:37;;;;;;;14.55;2.80;;;6.30;99.90;;;;;;5031309;28;20049;-64
2023/01/30 18:09:03;;;;;;;14.45;3.38;;;6.30;99.90;;;;;;5031438;28;20060;-65
2023/01/30 18:11:29;;;;;;;18.83;3.15;;;6.20;99.90;;;;;;5041517;28;20461;-65
2023/01/30 18:13:55;;;;;;;13.38;3.40;;;6.20;99.90;;;;;;5042705;28;20025;-65
2023/01/30 18:16:31;;;;;;;14.63;2.50;;;6.20;99.90;;;;;;5036434;28;20021;-64
2023/01/30 18:19:02;;;;;;;12.45;2.78;;;6.20;99.90;;;;;;5063882;28;20033;-63
2023/01/30 18:21:29;;;;;;;16.90;3.67;;;6.10;99.90;;;;;;5071541;28;20111;-63
2023/01/30 18:23:54;;;;;;;13.95;3.10;;;6.20;99.90;;;;;;5071046;28;20020;-64
2023/01/30 18:26:20;;;;;;;17.30;2.95;;;6.10;99.90;;;;;;5072021;28;20550;-63
2023/01/30 18:28:46;;;;;;;10.95;2.83;;;6.20;99.90;;;;;;5071416;28;20396;-64
2023/01/30 18:31:12;;;;;;;11.57;3.75;;;6.10;99.90;;;;;;5070930;28;20111;-63
2023/01/30 18:33:39;;;;;;;6.80;3.22;;;6.10;99.90;;;;;;5060333;28;20100;-63
2023/01/30 18:36:08;;;;;;;15.57;3.42;;;6.10;99.90;;;;;;5051169;28;20212;-63
2023/01/30 18:38:34;;;;;;;13.05;2.63;;;6.10;99.90;;;;;;5038140;28;20032;-63
2023/01/30 18:41:13;;;;;;;17.02;3.83;;;6.10;99.90;;;;;;5071316;28;20017;-64
2023/01/30 18:43:39;;;;;;;15.80;3.05;;;6.00;99.90;;;;;;5071119;28;20056;-63
2023/01/30 18:46:15;;;;;;;17.73;4.60;;;5.90;99.90;;;;;;5070297;28;20047;-65
2023/01/30 18:48:42;;;;;;;13.35;3.13;;;5.90;99.90;;;;;;5062872;28;20064;-66
2023/01/30 18:51:10;;;;;;;11.65;2.60;;;5.80;99.90;;;;;;5032207;28;20112;-63
2023/01/30 18:53:37;;;;;;;12.68;2.97;;;5.80;99.90;;;;;;5059205;28;20052;-64
2023/01/30 18:56:05;;;;;;;18.48;3.35;;;5.80;99.90;;;;;;5071433;28;20476;-66
2023/01/30 18:58:31;;;;;;;9.45;2.92;;;5.80;99.90;;;;;;5064161;28;20024;-64
2023/01/30 19:00:58;;;;;;;13.48;3.33;;;5.80;99.90;;;;;;5070983;28;20112;-63
2023/01/30 19:03:25;;;;;;;16.20;3.22;;;5.70;99.90;;;;;;5071192;28;20047;-64
2023/01/30 19:05:51;;;;;;;19.45;3.70;;;5.70;99.90;;;;;;5070779;28;20013;-63
2023/01/30 19:08:17;;;;;;;26.98;3.60;;;5.70;99.90;;;;;;5045729;28;20029;-66
